Lifton, United Kingdom
Current Conditions -  °F | °C
As of 8:50 PM on Monday 26 Jan 2015 (Local Time) from EGHQ Reporting Station
Scattered Clouds Scattered Clouds  
Wind Chill:   Ceiling: Unl
Heat Index:   Visibility: 6mi
Dew Point:   Wind: 15mph
Humidity: 76%   Direction: 320°NW
Pressure: 30.45"   Gusts: NA
Location:  50.64°N, 4.28°W
Report Text: EGHQ 262050Z 32013KT 9999 SCT025 07/03 Q1031
Loading
Personal Weather Stations






























Interactive Weather Map New forecast layout! Learn more

10-Day Weather Forecast

Advertisements
Track Severe Weather on mobile